Time;durP1;ratioP1;P1;durP2;ratioP2;P2;SDS_P1;SDS_P2;PMS_P1;PMS_P2;Temp;Humidity;BMP_temperature;BMP_pressure;BME280_temperature;BME280_humidity;BME280_pressure;Samples;Min_cycle;Max_cycle;Signal;HPM_P1;HPM_P2
2022/08/13 00:00:14;;;;;;;6.95;2.85;;;;;;;17.88;50.59;99413.59;5072184;28;20032;-57
2022/08/13 00:02:42;;;;;;;5.65;2.35;;;;;;;18.06;49.61;99408.53;5072045;28;20021;-57
2022/08/13 00:05:09;;;;;;;5.80;2.30;;;;;;;18.13;49.02;99403.56;5071527;28;20041;-58
2022/08/13 00:07:35;;;;;;;9.00;3.10;;;;;;;18.24;48.42;99402.34;5072028;28;20103;-58
2022/08/13 00:10:01;;;;;;;4.70;2.58;;;;;;;18.25;48.60;99406.69;5071996;28;20021;-58
2022/08/13 00:15:26;;;;;;;6.88;2.67;;;;;;;18.23;48.84;99411.59;5071956;28;20040;-57
2022/08/13 00:17:51;;;;;;;8.38;2.30;;;;;;;18.09;49.43;99414.16;5069154;28;20028;-58
2022/08/13 00:20:21;;;;;;;4.53;2.60;;;;;;;18.05;50.11;99412.34;5054261;28;20024;-58
2022/08/13 00:22:47;;;;;;;7.30;2.40;;;;;;;18.08;49.84;99412.56;5071913;28;20039;-57
2022/08/13 00:25:13;;;;;;;5.88;2.80;;;;;;;18.05;50.22;99423.19;5072333;28;20075;-57
2022/08/13 00:27:38;;;;;;;4.10;2.42;;;;;;;17.85;51.51;99408.75;5071748;28;20025;-58
2022/08/13 00:30:05;;;;;;;5.63;2.63;;;;;;;17.74;50.76;99418.00;5070578;28;20379;-58
2022/08/13 00:32:31;;;;;;;4.45;2.40;;;;;;;17.93;50.67;99414.63;5070135;28;20115;-58
2022/08/13 00:34:57;;;;;;;8.30;2.47;;;;;;;17.92;49.77;99413.00;5071328;28;20104;-58
2022/08/13 00:37:25;;;;;;;5.68;2.40;;;;;;;18.01;49.97;99424.84;5072190;28;20067;-58
2022/08/13 00:39:51;;;;;;;4.60;2.40;;;;;;;17.91;49.92;99412.19;5072205;28;20074;-58
2022/08/13 00:42:21;;;;;;;6.22;2.60;;;;;;;18.10;49.02;99409.56;5076488;28;20024;-58
2022/08/13 00:44:46;;;;;;;7.30;2.72;;;;;;;18.05;49.77;99406.91;5071839;28;20490;-58
2022/08/13 00:49:56;;;;;;;3.53;2.30;;;;;;;17.91;51.03;99416.81;5072107;28;20032;-58
2022/08/13 00:52:23;;;;;;;5.55;2.22;;;;;;;17.85;50.91;99407.94;5072186;28;20414;-58
2022/08/13 00:54:49;;;;;;;5.97;3.25;;;;;;;17.79;51.54;99409.84;5071480;28;20544;-57
2022/08/13 00:57:14;;;;;;;6.38;2.53;;;;;;;17.55;51.21;99414.41;5037699;28;20033;-57
2022/08/13 00:59:40;;;;;;;4.47;2.40;;;;;;;17.29;52.25;99421.91;5071238;28;20028;-56
2022/08/13 01:02:05;;;;;;;5.03;2.35;;;;;;;17.18;52.72;99416.56;5071471;28;20103;-58
2022/08/13 01:04:31;;;;;;;8.65;2.60;;;;;;;17.37;51.11;99414.00;5070747;28;20048;-58
2022/08/13 01:06:57;;;;;;;9.48;3.35;;;;;;;17.38;51.46;99412.91;5071304;28;20031;-58
2022/08/13 01:09:22;;;;;;;4.45;2.50;;;;;;;17.35;51.50;99410.75;5071653;28;20059;-58
2022/08/13 01:11:48;;;;;;;11.75;2.60;;;;;;;17.10;53.08;99417.16;5070162;28;20025;-58
2022/08/13 01:14:13;;;;;;;5.70;2.53;;;;;;;16.86;53.40;99419.75;5071670;28;20040;-58
2022/08/13 01:16:39;;;;;;;10.20;2.65;;;;;;;16.89;53.49;99411.06;5069775;28;20028;-58
2022/08/13 01:19:08;;;;;;;7.50;2.30;;;;;;;17.05;52.94;99414.50;5069880;28;20391;-58
2022/08/13 01:21:41;;;;;;;6.45;2.72;;;;;;;17.30;52.66;99408.09;5071347;28;20540;-57
2022/08/13 01:24:10;;;;;;;9.05;2.90;;;;;;;16.97;53.30;99412.38;5064961;28;20032;-57
2022/08/13 01:26:35;;;;;;;4.80;2.60;;;;;;;17.05;53.22;99417.22;5071196;28;20029;-57
2022/08/13 01:29:04;;;;;;;6.72;2.80;;;;;;;16.90;53.66;99415.41;5053424;28;20110;-57
2022/08/13 01:31:30;;;;;;;6.28;2.42;;;;;;;17.12;53.29;99412.25;5074831;28;20040;-57
2022/08/13 01:33:59;;;;;;;6.70;2.50;;;;;;;17.19;52.54;99415.47;5077405;28;20051;-57
2022/08/13 01:36:25;;;;;;;6.27;2.30;;;;;;;17.03;52.57;99422.09;5077271;28;20033;-57
2022/08/13 01:38:51;;;;;;;6.43;2.90;;;;;;;16.98;52.61;99417.50;5074971;28;20028;-57
2022/08/13 01:41:16;;;;;;;8.13;2.40;;;;;;;17.12;51.61;99422.28;5073355;28;20035;-57
2022/08/13 01:43:42;;;;;;;3.70;2.45;;;;;;;17.09;52.20;99418.25;5078725;28;20028;-57
2022/08/13 01:46:09;;;;;;;6.38;2.50;;;;;;;17.02;52.19;99417.75;5057139;28;20047;-57
2022/08/13 01:51:25;;;;;;;4.57;2.50;;;;;;;16.94;53.23;99416.44;5074563;28;20039;-57
2022/08/13 01:53:52;;;;;;;7.57;2.47;;;;;;;16.80;53.33;99410.03;5074475;28;20137;-57
2022/08/13 01:56:22;;;;;;;5.32;2.80;;;;;;;16.74;53.57;99417.31;5073066;28;20020;-57
2022/08/13 01:58:53;;;;;;;5.20;2.60;;;;;;;16.75;54.35;99420.88;5074333;28;20510;-57
2022/08/13 02:01:25;;;;;;;8.27;2.63;;;;;;;16.84;53.41;99421.91;5074042;28;20428;-57
2022/08/13 02:03:51;;;;;;;9.48;2.45;;;;;;;16.69;54.70;99413.84;5074170;28;20020;-57
2022/08/13 02:06:29;;;;;;;5.47;2.50;;;;;;;16.57;55.23;99417.69;5072419;28;20406;-57
2022/08/13 02:09:00;;;;;;;4.10;2.70;;;;;;;16.45;55.48;99425.31;5073956;28;20054;-57
2022/08/13 02:11:29;;;;;;;9.30;2.60;;;;;;;16.40;54.82;99419.94;5074510;28;20052;-57
2022/08/13 02:13:55;;;;;;;3.55;2.15;;;;;;;16.42;54.41;99406.91;5074533;28;20423;-57
2022/08/13 02:16:20;;;;;;;5.32;2.63;;;;;;;16.62;53.40;99414.13;5074003;28;20055;-57
2022/08/13 02:18:46;;;;;;;6.95;2.30;;;;;;;16.44;54.13;99426.38;5073982;28;20063;-57
2022/08/13 02:21:12;;;;;;;4.53;2.38;;;;;;;16.34;54.39;99419.13;5073588;28;20024;-57
2022/08/13 02:23:37;;;;;;;7.57;2.97;;;;;;;16.45;53.91;99425.31;5078922;28;22016;-57
2022/08/13 02:26:05;;;;;;;7.30;2.72;;;;;;;16.39;54.14;99424.50;5074119;28;20032;-57
2022/08/13 02:28:32;;;;;;;6.15;2.50;;;;;;;16.39;54.96;99426.41;5072769;28;20017;-57
2022/08/13 02:30:57;;;;;;;4.47;2.35;;;;;;;16.29;55.54;99431.84;5055774;28;20028;-57
2022/08/13 02:33:23;;;;;;;6.88;2.70;;;;;;;16.27;54.96;99425.91;5059852;28;20036;-57
2022/08/13 02:35:49;;;;;;;3.58;2.33;;;;;;;16.17;56.26;99430.28;5073545;28;20062;-57
2022/08/13 02:38:16;;;;;;;4.32;2.35;;;;;;;16.21;55.76;99429.72;5073600;28;20029;-57
2022/08/13 02:43:48;;;;;;;;;;;;;;;;;;;;;
2022/08/13 02:46:14;;;;;;;4.28;2.35;;;;;;;16.20;54.73;99420.81;5067151;28;20055;-57
2022/08/13 02:48:40;;;;;;;5.28;2.60;;;;;;;16.09;56.17;99421.91;5072154;28;20048;-57
2022/08/13 02:51:05;;;;;;;4.40;2.58;;;;;;;15.75;56.97;99427.91;5072883;28;20082;-57
2022/08/13 02:53:31;;;;;;;4.32;2.60;;;;;;;15.88;57.14;99426.53;5073209;28;20378;-57
2022/08/13 02:55:57;;;;;;;5.78;2.85;;;;;;;15.89;56.04;99423.56;5072103;28;20025;-57
2022/08/13 02:58:22;;;;;;;5.72;2.40;;;;;;;16.04;55.47;99420.00;5073152;28;20025;-57
2022/08/13 03:00:48;;;;;;;4.85;2.25;;;;;;;16.11;56.42;99420.53;5073091;28;20036;-57
2022/08/13 03:03:14;;;;;;;10.52;2.58;;;;;;;16.05;56.31;99416.25;5073469;28;20032;-57
2022/08/13 03:05:40;;;;;;;4.53;2.30;;;;;;;16.03;56.50;99417.59;5072200;28;20040;-57
2022/08/13 03:08:05;;;;;;;3.50;2.35;;;;;;;16.15;56.47;99421.63;5072973;28;20111;-55
2022/08/13 03:10:31;;;;;;;5.05;2.30;;;;;;;16.06;55.79;99417.84;5072978;28;20031;-55
2022/08/13 03:12:59;;;;;;;5.55;2.60;;;;;;;15.92;57.88;99433.00;5073076;28;20032;-54
2022/08/13 03:15:24;;;;;;;4.10;2.70;;;;;;;15.90;57.95;99427.06;5071565;28;20040;-55
2022/08/13 03:17:49;;;;;;;5.30;2.60;;;;;;;15.92;56.89;99425.69;5055184;28;20020;-56
2022/08/13 03:20:18;;;;;;;4.60;2.40;;;;;;;15.86;57.26;99429.50;5072312;28;20032;-56
2022/08/13 03:22:57;;;;;;;4.40;2.50;;;;;;;15.51;58.31;99423.00;5072987;28;20020;-55
2022/08/13 03:25:24;;;;;;;4.78;2.60;;;;;;;15.49;57.51;99430.56;5072768;28;20040;-54
2022/08/13 03:27:49;;;;;;;6.68;2.60;;;;;;;15.60;57.01;99426.00;5072438;28;20112;-57
2022/08/13 03:30:16;;;;;;;12.48;2.53;;;;;;;15.62;57.86;99423.81;5072649;28;20108;-58
2022/08/13 03:32:42;;;;;;;5.03;2.60;;;;;;;15.85;55.84;99432.47;5078915;28;20028;-57
2022/08/13 03:35:09;;;;;;;8.68;2.63;;;;;;;15.77;56.53;99424.91;5075126;28;20035;-56
2022/08/13 03:37:35;;;;;;;4.00;2.50;;;;;;;15.66;57.17;99427.59;5073417;28;20024;-56
2022/08/13 03:40:01;;;;;;;7.68;2.60;;;;;;;15.76;58.32;99426.81;5072441;28;20024;-56
2022/08/13 03:42:27;;;;;;;8.20;2.50;;;;;;;15.66;58.86;99432.19;5072074;28;20071;-57
2022/08/13 03:44:54;;;;;;;3.47;2.47;;;;;;;15.59;58.18;99424.34;5072825;28;20024;-56
2022/08/13 03:47:19;;;;;;;5.28;2.50;;;;;;;15.41;58.73;99428.41;5072403;28;20071;-55
2022/08/13 03:49:46;;;;;;;6.53;2.80;;;;;;;15.23;59.81;99427.06;5072352;28;20360;-56
2022/08/13 03:52:13;;;;;;;6.13;2.58;;;;;;;15.08;59.64;99427.03;5072243;28;20036;-56
2022/08/13 03:54:39;;;;;;;5.20;2.90;;;;;;;15.21;59.31;99423.00;5072245;28;20437;-55
2022/08/13 03:57:04;;;;;;;4.70;2.30;;;;;;;15.24;59.47;99425.16;5071204;28;20451;-55
2022/08/13 03:59:31;;;;;;;3.92;2.45;;;;;;;15.19;59.25;99431.34;5072040;28;20481;-55
2022/08/13 04:02:01;;;;;;;9.50;2.70;;;;;;;15.16;59.77;99421.09;5073434;28;20029;-56
2022/08/13 04:04:27;;;;;;;9.52;2.60;;;;;;;15.25;59.08;99419.50;5071441;28;20048;-56
2022/08/13 04:06:52;;;;;;;5.18;2.50;;;;;;;15.30;58.65;99421.38;5087032;28;20032;-55
2022/08/13 04:09:18;;;;;;;5.22;2.55;;;;;;;15.08;59.47;99424.31;5072132;28;20035;-56
2022/08/13 04:11:46;;;;;;;6.95;2.95;;;;;;;15.13;59.37;99429.72;5071904;28;20024;-56
2022/08/13 04:14:11;;;;;;;5.53;2.92;;;;;;;14.96;59.82;99427.25;5072092;28;20071;-55
2022/08/13 04:16:37;;;;;;;5.07;2.80;;;;;;;14.99;59.68;99421.31;5072071;28;20020;-55
2022/08/13 04:19:02;;;;;;;7.80;2.80;;;;;;;15.08;59.52;99424.31;5071985;28;20032;-55
2022/08/13 04:21:31;;;;;;;4.43;2.70;;;;;;;15.23;58.84;99431.66;5071551;28;20051;-55
2022/08/13 04:23:57;;;;;;;5.40;2.58;;;;;;;15.29;58.51;99428.66;5071748;28;20116;-56
2022/08/13 04:26:24;;;;;;;4.15;2.60;;;;;;;15.60;57.51;99430.56;5070497;28;20040;-54
2022/08/13 04:28:50;;;;;;;8.48;2.50;;;;;;;16.18;56.40;99426.47;5072151;28;20370;-55
2022/08/13 04:31:16;;;;;;;5.53;2.58;;;;;;;17.06;53.83;99434.25;5070217;28;20497;-55
2022/08/13 04:33:42;;;;;;;4.63;2.63;;;;;;;16.72;54.54;99432.22;5071906;28;20128;-55
2022/08/13 04:36:07;;;;;;;4.57;2.55;;;;;;;18.12;50.95;99437.19;5071449;28;20028;-55
2022/08/13 04:38:33;;;;;;;6.28;2.42;;;;;;;18.89;48.68;99437.13;5070476;28;20027;-54
2022/08/13 04:40:59;;;;;;;5.15;2.47;;;;;;;19.37;47.24;99438.91;5071687;28;20033;-56
2022/08/13 04:43:24;;;;;;;4.97;2.45;;;;;;;19.16;47.47;99441.91;5070297;28;20391;-56
2022/08/13 04:45:50;;;;;;;4.40;2.80;;;;;;;19.48;46.44;99443.06;5071792;28;20044;-55
2022/08/13 04:48:15;;;;;;;8.68;2.72;;;;;;;19.95;45.98;99441.22;5071758;28;20033;-58
2022/08/13 04:50:42;;;;;;;6.30;2.53;;;;;;;21.38;43.87;99444.88;5069953;28;20102;-55
2022/08/13 04:53:26;;;;;;;6.45;2.72;;;;;;;22.12;42.47;99442.47;5071569;28;20040;-55
2022/08/13 04:55:52;;;;;;;7.05;3.20;;;;;;;22.23;42.60;99450.44;5071787;28;20033;-56
2022/08/13 04:58:18;;;;;;;5.90;2.60;;;;;;;22.32;42.35;99449.34;5071439;28;20031;-56
2022/08/13 05:00:44;;;;;;;9.82;2.75;;;;;;;22.50;41.17;99450.22;5071490;28;20033;-56
2022/08/13 05:03:20;;;;;;;3.83;2.42;;;;;;;22.32;42.05;99454.00;5071681;28;20383;-55
2022/08/13 05:05:51;;;;;;;12.05;2.60;;;;;;;23.62;40.08;99447.94;5074161;28;20468;-55
2022/08/13 05:08:17;;;;;;;5.97;2.58;;;;;;;24.48;38.55;99452.41;5075463;28;20081;-55
2022/08/13 05:10:46;;;;;;;6.22;2.50;;;;;;;23.53;39.42;99449.88;5075887;28;20021;-56
2022/08/13 05:13:20;;;;;;;8.35;2.50;;;;;;;23.93;38.22;99457.88;5075602;28;20032;-56
2022/08/13 05:15:46;;;;;;;8.13;3.13;;;;;;;23.94;38.40;99459.50;5075836;28;20036;-55
2022/08/13 05:18:11;;;;;;;6.43;2.38;;;;;;;22.77;40.56;99453.81;5075286;28;20020;-56
2022/08/13 05:20:39;;;;;;;7.45;2.60;;;;;;;23.27;39.92;99461.63;5074197;28;20037;-55
2022/08/13 05:23:08;;;;;;;5.68;2.85;;;;;;;24.42;37.93;99467.41;5075305;28;20024;-56
2022/08/13 05:25:34;;;;;;;5.70;2.75;;;;;;;25.81;35.93;99463.72;5073521;28;20025;-56
2022/08/13 05:27:59;;;;;;;11.65;3.03;;;;;;;25.01;37.21;99471.28;5075206;28;20029;-56
2022/08/13 05:30:27;;;;;;;8.52;2.97;;;;;;;26.06;35.63;99465.75;5074542;28;20024;-55
2022/08/13 05:32:55;;;;;;;8.15;2.92;;;;;;;26.02;35.45;99460.13;5081177;28;20502;-57
2022/08/13 05:35:20;;;;;;;11.05;2.75;;;;;;;25.47;36.48;99464.84;5064585;28;20148;-55
2022/08/13 05:37:46;;;;;;;5.13;2.80;;;;;;;26.88;33.45;99463.75;5073603;28;20032;-56
2022/08/13 05:40:12;;;;;;;6.20;2.65;;;;;;;26.85;34.09;99464.44;5075181;28;20040;-56
2022/08/13 05:42:39;;;;;;;6.57;2.75;;;;;;;26.54;34.52;99462.28;5077675;28;20025;-55
2022/08/13 05:45:07;;;;;;;7.57;2.67;;;;;;;26.92;33.78;99452.84;5079044;28;20032;-56
2022/08/13 05:47:32;;;;;;;6.63;2.65;;;;;;;27.64;32.99;99461.25;5057652;28;20039;-56
2022/08/13 05:49:58;;;;;;;10.32;2.70;;;;;;;27.54;33.21;99461.78;5074352;28;20387;-57
2022/08/13 05:52:24;;;;;;;5.63;2.50;;;;;;;28.70;31.96;99466.34;5074851;28;20025;-55
2022/08/13 05:54:49;;;;;;;5.32;2.38;;;;;;;27.74;33.09;99471.78;5073316;28;20024;-56
2022/08/13 05:57:15;;;;;;;6.95;2.75;;;;;;;27.44;33.96;99467.78;5074692;28;20047;-55
2022/08/13 06:05:08;;;;;;;9.60;2.65;;;;;;;28.26;32.75;99480.25;5073819;28;20509;-57
2022/08/13 06:07:34;;;;;;;7.28;2.65;;;;;;;28.01;32.58;99485.91;5074437;28;20032;-55
2022/08/13 06:09:59;;;;;;;8.48;2.60;;;;;;;28.42;31.57;99474.72;5074399;28;20024;-56
2022/08/13 06:12:25;;;;;;;6.55;2.55;;;;;;;28.51;31.90;99470.66;5074387;28;20032;-56
2022/08/13 06:14:52;;;;;;;8.63;2.70;;;;;;;28.88;30.40;99472.28;5074440;28;20036;-56
2022/08/13 06:17:18;;;;;;;5.97;2.42;;;;;;;29.72;29.34;99471.75;5073300;28;20028;-55
2022/08/13 06:19:43;;;;;;;15.15;2.80;;;;;;;28.56;30.32;99472.34;5062937;28;20028;-56
2022/08/13 06:22:09;;;;;;;13.05;2.67;;;;;;;29.73;29.48;99478.06;5074152;28;20479;-56
2022/08/13 06:24:37;;;;;;;5.40;2.30;;;;;;;29.41;29.23;99476.25;5074183;28;20035;-56
2022/08/13 06:27:06;;;;;;;4.00;1.98;;;;;;;29.85;29.23;99480.66;5073944;28;20028;-56
2022/08/13 06:29:35;;;;;;;10.27;2.67;;;;;;;29.18;29.89;99472.56;5074073;28;20029;-56
2022/08/13 06:32:04;;;;;;;8.57;2.50;;;;;;;30.69;27.78;99477.00;5075343;28;20475;-55
2022/08/13 06:34:35;;;;;;;6.60;2.47;;;;;;;30.60;28.28;99476.44;5073353;28;20041;-55
2022/08/13 06:37:04;;;;;;;5.63;2.47;;;;;;;31.22;27.95;99472.63;5074375;28;20025;-56
2022/08/13 06:39:30;;;;;;;6.35;2.60;;;;;;;31.36;27.56;99473.59;5073897;28;20028;-55
2022/08/13 06:42:04;;;;;;;6.60;2.38;;;;;;;31.28;27.94;99476.69;5073996;28;20063;-56
2022/08/13 06:44:31;;;;;;;6.65;2.50;;;;;;;31.87;26.76;99480.53;5072568;28;20056;-56
2022/08/13 06:46:58;;;;;;;6.25;2.58;;;;;;;31.31;27.46;99476.72;5073819;28;20074;-57
2022/08/13 06:49:25;;;;;;;13.15;2.45;;;;;;;32.00;27.17;99478.31;5072205;28;20437;-56
2022/08/13 06:51:50;;;;;;;7.50;2.40;;;;;;;31.92;26.87;99471.88;5073559;28;20020;-56
2022/08/13 06:54:16;;;;;;;10.40;2.50;;;;;;;32.07;26.96;99477.59;5073568;28;20078;-55
2022/08/13 06:56:41;;;;;;;14.43;2.83;;;;;;;31.02;27.64;99480.25;5073635;28;20043;-56
2022/08/13 06:59:06;;;;;;;11.52;2.72;;;;;;;32.53;25.88;99477.25;5072537;28;20029;-56
2022/08/13 07:01:32;;;;;;;10.43;2.90;;;;;;;31.62;26.76;99476.69;5072284;28;20032;-56
2022/08/13 07:03:57;;;;;;;8.88;2.63;;;;;;;31.59;27.00;99473.50;5073098;28;20374;-56
2022/08/13 07:06:27;;;;;;;8.63;2.55;;;;;;;31.85;27.02;99485.66;5072836;28;20096;-56
2022/08/13 07:08:54;;;;;;;23.52;2.80;;;;;;;31.11;28.07;99483.56;5073110;28;20029;-56
2022/08/13 07:11:27;;;;;;;13.50;2.70;;;;;;;31.98;26.88;99481.50;5073381;28;20028;-56
2022/08/13 07:13:58;;;;;;;11.75;2.70;;;;;;;31.37;27.61;99480.72;5072144;28;20214;-56
2022/08/13 07:16:25;;;;;;;13.38;2.65;;;;;;;31.29;27.59;99479.06;5073016;28;20399;-56
2022/08/13 07:18:51;;;;;;;7.75;2.42;;;;;;;32.52;26.58;99483.97;5072760;28;20016;-55
2022/08/13 07:21:19;;;;;;;11.35;2.70;;;;;;;33.07;26.26;99483.97;5073397;28;20402;-55
2022/08/13 07:23:45;;;;;;;6.25;2.75;;;;;;;33.72;25.28;99488.66;5071799;28;20028;-55
2022/08/13 07:26:12;;;;;;;10.25;2.63;;;;;;;33.35;25.89;99488.06;5072954;28;20032;-56
2022/08/13 07:28:38;;;;;;;12.57;2.78;;;;;;;32.18;27.10;99484.84;5072343;28;20036;-55
2022/08/13 07:31:06;;;;;;;13.05;2.55;;;;;;;32.53;26.65;99480.03;5076613;28;20433;-55
2022/08/13 07:33:36;;;;;;;6.72;2.70;;;;;;;33.20;26.27;99492.75;5072719;28;20024;-55
2022/08/13 07:36:12;;;;;;;5.20;2.70;;;;;;;33.80;26.11;99491.41;5078604;28;20056;-55
2022/08/13 07:38:37;;;;;;;8.75;2.22;;;;;;;33.89;25.45;99489.06;5077225;28;20033;-55
2022/08/13 07:41:03;;;;;;;14.40;2.90;;;;;;;32.28;27.11;99485.34;5072683;28;20043;-56
2022/08/13 07:43:36;;;;;;;9.80;2.50;;;;;;;33.40;26.63;99484.91;5072675;28;20055;-55
2022/08/13 07:46:05;;;;;;;10.32;2.70;;;;;;;33.33;26.33;99484.91;5072436;28;20402;-55
2022/08/13 07:48:31;;;;;;;17.20;2.70;;;;;;;33.88;25.72;99482.72;5072468;28;20036;-56
2022/08/13 07:50:58;;;;;;;6.50;2.50;;;;;;;33.60;25.54;99483.44;5071011;28;20475;-55
2022/08/13 07:53:24;;;;;;;4.55;2.60;;;;;;;32.13;26.99;99481.63;5071241;28;20522;-55
2022/08/13 07:55:50;;;;;;;12.48;2.90;;;;;;;27.59;33.23;99480.78;5071641;28;20024;-54
2022/08/13 07:58:16;;;;;;;6.25;2.92;;;;;;;27.43;33.82;99466.97;5071005;28;20029;-54
2022/08/13 08:00:44;;;;;;;7.03;3.10;;;;;;;28.20;32.23;99473.38;5071866;28;20035;-55
2022/08/13 08:03:10;;;;;;;8.38;2.90;;;;;;;29.58;30.42;99465.91;5072380;28;20024;-55
2022/08/13 08:05:35;;;;;;;7.95;2.90;;;;;;;29.95;29.46;99476.50;5070084;28;20040;-55
2022/08/13 08:08:01;;;;;;;5.25;2.70;;;;;;;27.53;33.11;99473.91;5070631;28;20033;-56
2022/08/13 08:10:27;;;;;;;6.88;2.83;;;;;;;27.90;32.54;99476.53;5073142;28;20029;-55
2022/08/13 08:12:54;;;;;;;8.02;3.00;;;;;;;28.14;32.23;99473.66;5071505;28;20068;-57
2022/08/13 08:15:23;;;;;;;7.90;2.92;;;;;;;27.85;32.21;99468.53;5070719;28;20034;-56
2022/08/13 08:17:49;;;;;;;5.55;3.10;;;;;;;29.61;30.74;99470.72;5072318;28;20033;-56
2022/08/13 08:20:21;;;;;;;9.95;3.30;;;;;;;30.29;30.14;99481.09;5071295;28;20132;-56
2022/08/13 08:22:48;;;;;;;5.72;3.10;;;;;;;29.33;31.20;99466.22;5071222;28;20438;-56
2022/08/13 08:25:17;;;;;;;6.90;3.10;;;;;;;29.87;30.74;99470.06;5070777;28;20062;-55
2022/08/13 08:27:42;;;;;;;;;;;;;;;29.53;31.32;99472.53;5072470;28;20024;-56
2022/08/13 08:30:08;;;;;;;14.32;3.20;;;;;;;29.82;30.64;99470.34;5071605;28;20068;-55
2022/08/13 08:32:35;;;;;;;5.43;2.95;;;;;;;29.39;31.40;99470.28;5072458;28;20036;-56
2022/08/13 08:35:00;;;;;;;4.65;3.00;;;;;;;29.25;31.30;99469.97;5070349;28;20034;-55
2022/08/13 08:42:56;;;;;;;4.57;3.10;;;;;;;28.49;32.47;99461.94;5071641;28;20044;-55
2022/08/13 08:45:22;;;;;;;6.90;3.10;;;;;;;28.48;31.41;99460.34;5071959;28;20028;-56
2022/08/13 08:47:48;;;;;;;5.20;3.20;;;;;;;28.44;31.65;99459.41;5071757;28;20379;-56
2022/08/13 08:50:17;;;;;;;7.22;2.90;;;;;;;27.31;33.11;99459.56;5071500;28;20429;-54
2022/08/13 08:55:27;;;;;;;4.07;2.92;;;;;;;27.92;32.70;99463.22;5071154;28;20043;-55
2022/08/13 08:57:52;;;;;;;4.65;3.08;;;;;;;28.14;32.08;99451.59;5053709;28;20371;-55
2022/08/13 09:00:19;;;;;;;10.45;3.00;;;;;;;27.09;33.14;99457.31;5073052;28;20048;-55
2022/08/13 09:02:46;;;;;;;7.45;3.30;;;;;;;27.82;32.79;99458.22;5074042;28;20050;-55
2022/08/13 09:05:13;;;;;;;8.98;3.00;;;;;;;28.96;32.10;99461.06;5069453;28;20106;-55
2022/08/13 09:07:39;;;;;;;6.65;3.00;;;;;;;28.15;32.48;99450.44;5057658;28;20024;-55
2022/08/13 09:10:05;;;;;;;5.28;3.00;;;;;;;28.10;31.38;99450.69;5071566;28;20364;-55
2022/08/13 09:12:30;;;;;;;6.88;3.10;;;;;;;28.69;30.66;99448.22;5071691;28;20062;-55
2022/08/13 09:14:57;;;;;;;4.68;3.10;;;;;;;27.92;32.47;99450.25;5071602;28;20025;-55
2022/08/13 09:17:22;;;;;;;6.68;3.15;;;;;;;27.89;32.49;99442.69;5071426;28;20068;-54
2022/08/13 09:19:47;;;;;;;5.45;2.83;;;;;;;27.31;32.40;99450.50;5069731;28;20020;-54
2022/08/13 09:22:17;;;;;;;8.43;2.95;;;;;;;27.51;32.29;99451.47;5071401;28;20097;-55
2022/08/13 09:24:45;;;;;;;6.85;3.03;;;;;;;27.96;32.17;99450.34;5071589;28;20382;-55
2022/08/13 09:27:12;;;;;;;4.57;3.00;;;;;;;28.55;31.33;99446.72;5070421;28;20036;-54
2022/08/13 09:29:38;;;;;;;7.30;3.38;;;;;;;27.68;32.32;99447.59;5078046;28;20467;-55
2022/08/13 09:32:05;;;;;;;8.23;3.30;;;;;;;28.24;31.73;99438.47;5053391;28;20025;-55
2022/08/13 09:34:30;;;;;;;8.98;3.30;;;;;;;29.18;30.81;99436.69;5070835;28;20085;-55
2022/08/13 09:36:56;;;;;;;6.93;3.35;;;;;;;29.80;29.76;99445.84;5070066;28;20029;-55
2022/08/13 09:40:07;;;;;;;9.05;2.75;;;;;;;29.11;30.32;99431.84;5077342;28;20028;-55
2022/08/13 09:42:36;;;;;;;5.65;3.03;;;;;;;29.16;30.70;99439.03;5036316;28;20402;-55
2022/08/13 09:45:02;;;;;;;7.63;3.35;;;;;;;29.28;30.38;99438.91;5068830;28;20067;-54
2022/08/13 09:47:29;;;;;;;3.90;2.75;;;;;;;28.01;31.44;99421.72;5069758;28;20029;-55
2022/08/13 09:49:55;;;;;;;6.93;3.05;;;;;;;27.47;32.74;99425.78;5080867;28;20044;-55
2022/08/13 09:52:20;;;;;;;11.73;3.22;;;;;;;28.25;31.57;99431.78;5074880;28;20499;-57
2022/08/13 09:54:49;;;;;;;6.25;3.10;;;;;;;27.75;31.40;99417.50;5074637;28;20029;-55
2022/08/13 09:57:14;;;;;;;5.25;3.10;;;;;;;29.00;30.15;99423.28;5074605;28;20028;-57
2022/08/13 09:59:40;;;;;;;3.83;2.83;;;;;;;29.44;29.36;99427.78;5074338;28;20085;-56
2022/08/13 10:02:09;;;;;;;10.32;2.90;;;;;;;29.00;29.69;99423.28;5074681;28;20017;-55
2022/08/13 10:04:37;;;;;;;4.00;2.70;;;;;;;28.76;30.32;99426.31;5073810;28;20171;-57
2022/08/13 10:07:04;;;;;;;5.78;2.80;;;;;;;27.96;31.82;99411.78;5074505;28;20429;-57
2022/08/13 10:09:29;;;;;;;13.27;3.17;;;;;;;28.26;30.88;99414.09;5077737;28;20035;-54
2022/08/13 10:11:55;;;;;;;6.50;2.85;;;;;;;28.84;30.01;99411.53;5057065;28;20063;-57
2022/08/13 10:14:20;;;;;;;5.03;2.92;;;;;;;29.94;28.99;99405.84;5074411;28;20494;-57
2022/08/13 10:16:46;;;;;;;4.40;2.70;;;;;;;29.24;28.89;99408.47;5074497;28;20485;-57
2022/08/13 10:19:11;;;;;;;3.97;2.70;;;;;;;28.81;30.21;99401.22;5074481;28;20055;-56
2022/08/13 10:21:37;;;;;;;6.28;3.10;;;;;;;29.42;29.59;99397.75;5073592;28;20032;-56
2022/08/13 10:24:04;;;;;;;5.03;3.03;;;;;;;29.10;29.44;99388.06;5074236;28;20032;-57
2022/08/13 10:26:29;;;;;;;6.05;2.97;;;;;;;29.41;28.94;99382.38;5072711;28;20090;-57
2022/08/13 10:28:55;;;;;;;6.88;2.95;;;;;;;29.01;29.85;99394.56;5074049;28;20028;-57
2022/08/13 10:31:21;;;;;;;4.15;2.80;;;;;;;29.73;28.73;99384.16;5074040;28;20423;-55
2022/08/13 10:33:47;;;;;;;8.35;2.67;;;;;;;29.27;29.14;99387.63;5073868;28;20025;-53
2022/08/13 10:36:14;;;;;;;5.00;2.90;;;;;;;29.52;29.32;99381.78;5073478;28;20039;-55
2022/08/13 10:38:40;;;;;;;5.75;2.90;;;;;;;29.55;29.28;99378.28;5079022;28;20031;-54
2022/08/13 10:41:07;;;;;;;8.80;2.65;;;;;;;30.01;28.80;99381.09;5076795;28;20024;-54
2022/08/13 10:43:35;;;;;;;4.95;3.00;;;;;;;29.11;29.38;99379.44;5072497;28;20033;-55
2022/08/13 10:46:00;;;;;;;11.27;2.83;;;;;;;28.98;29.39;99367.72;5076249;28;20032;-57
2022/08/13 10:48:26;;;;;;;4.70;2.47;;;;;;;29.56;29.18;99380.69;5073708;28;20021;-57
2022/08/13 10:50:53;;;;;;;6.55;2.95;;;;;;;29.41;29.06;99379.63;5073387;28;20087;-57
2022/08/13 10:56:11;;;;;;;8.55;2.70;;;;;;;29.35;29.76;99372.00;5071988;28;20533;-57
2022/08/13 10:58:37;;;;;;;8.55;2.78;;;;;;;28.64;29.61;99368.53;5074058;28;20029;-57
2022/08/13 11:01:05;;;;;;;4.15;2.70;;;;;;;28.95;29.49;99371.16;5072050;28;20555;-57
2022/08/13 11:03:31;;;;;;;11.32;2.90;;;;;;;29.25;29.33;99365.09;5072757;28;20020;-55
2022/08/13 11:05:59;;;;;;;5.32;2.63;;;;;;;29.53;28.65;99353.00;5072579;28;20471;-55
2022/08/13 11:08:26;;;;;;;5.75;2.97;;;;;;;27.95;30.09;99363.34;5073022;28;20029;-57
2022/08/13 11:10:51;;;;;;;5.18;2.70;;;;;;;28.35;29.54;99359.56;5072418;28;20028;-56
2022/08/13 11:13:16;;;;;;;5.10;2.63;;;;;;;29.13;29.48;99351.44;5073440;28;20578;-58
2022/08/13 11:15:42;;;;;;;3.72;2.60;;;;;;;28.95;28.66;99359.34;5072825;28;20471;-56
2022/08/13 11:18:09;;;;;;;6.03;2.80;;;;;;;29.34;28.01;99357.41;5073007;28;20024;-54
2022/08/13 11:20:50;;;;;;;5.70;2.70;;;;;;;29.12;28.18;99358.13;5072798;28;20021;-57
2022/08/13 11:23:16;;;;;;;3.65;2.55;;;;;;;29.28;28.68;99361.63;5073443;28;20036;-55
2022/08/13 11:25:41;;;;;;;5.82;2.90;;;;;;;29.31;27.91;99354.56;5073250;28;20028;-55
2022/08/13 11:28:13;;;;;;;5.18;2.33;;;;;;;27.85;29.30;99352.88;5073186;28;20035;-54
2022/08/13 11:30:38;;;;;;;4.63;2.40;;;;;;;29.32;28.00;99345.13;5072967;28;20356;-55
2022/08/13 11:33:04;;;;;;;7.43;2.75;;;;;;;29.89;27.14;99348.94;5076852;28;20027;-56
2022/08/13 11:35:30;;;;;;;7.35;2.70;;;;;;;29.49;27.45;99349.38;5070959;28;20111;-56
2022/08/13 11:37:55;;;;;;;7.15;2.92;;;;;;;28.94;28.53;99349.47;5066179;28;20505;-56
2022/08/13 11:40:21;;;;;;;7.00;2.70;;;;;;;28.47;29.00;99342.16;5071663;28;20028;-56
2022/08/13 11:42:46;;;;;;;5.93;2.92;;;;;;;28.96;27.91;99345.19;5072688;28;20446;-55
2022/08/13 11:45:11;;;;;;;7.40;2.75;;;;;;;28.89;27.77;99350.56;5072323;28;20107;-56
2022/08/13 11:47:40;;;;;;;6.63;2.70;;;;;;;28.84;28.28;99342.56;5076415;28;20039;-55
2022/08/13 11:50:06;;;;;;;5.38;2.90;;;;;;;28.88;28.24;99346.22;5072446;28;20039;-55
2022/08/13 11:52:32;;;;;;;5.97;2.90;;;;;;;28.84;29.39;99344.53;5070997;28;20040;-55
2022/08/13 11:54:57;;;;;;;9.48;3.00;;;;;;;29.06;28.46;99334.78;5072403;28;20020;-56
2022/08/13 11:57:23;;;;;;;6.25;2.58;;;;;;;29.82;28.47;99326.72;5072230;28;20029;-56
2022/08/13 11:59:48;;;;;;;6.10;2.90;;;;;;;29.81;27.61;99325.91;5072618;28;20024;-56